Verda, Louisiana
Current Conditions -  °F | °C
As of 6:55 PM on Saturday 25 Oct 2014 (Local Time) from KIER Reporting Station
Clear Clear  
Wind Chill: 67°   Ceiling: Unl
Heat Index: 67°   Visibility: 10mi
Dew Point: 62°   Wind: 0mph
Humidity: 84%   Direction: NA
Pressure: 30.09"   Gusts: NA
Location:  31.7°N, 92.77°W
Report Text: KIER 252355Z AUTO 00000KT 10SM CLR 19/17 A3009 RMK AO2 T01940167 10292 20193
Loading
Personal Weather Stations






























Interactive Weather Map
Tropical Storm Tracking
New forecast layout! Learn more

10-Day Weather Forecast

Advertisements
Track Severe Weather on mobile